Time;durP1;ratioP1;P1;durP2;ratioP2;P2;SDS_P1;SDS_P2;PMS_P1;PMS_P2;Temp;Humidity;BMP_temperature;BMP_pressure;BME280_temperature;BME280_humidity;BME280_pressure;Samples;Min_cycle;Max_cycle;Signal;HPM_P1;HPM_P2
2021/09/06 00:01:22;;;;;;;;;;;;;;;17.75;38.92;100618.00;4392000;32;33068;-89
2021/09/06 00:03:59;;;;;;;;;;;;;;;16.70;40.73;100618.88;4381749;32;33575;-91
2021/09/06 00:06:46;;;;;;;;;;;;;;;17.07;40.17;100623.84;4382308;32;35834;-90
2021/09/06 00:09:22;;;;;;;;;;;;;;;17.19;39.94;100633.28;4394658;32;34976;-89
2021/09/06 00:11:58;;;;;;;;;;;;;;;17.67;40.49;100628.78;4382494;32;33924;-89
2021/09/06 00:14:45;;;;;;;;;;;;;;;17.21;39.78;100629.41;4402751;32;34837;-90
2021/09/06 00:17:14;;;;;;;;;;;;;;;17.40;39.53;100621.06;4392713;32;36031;-89
2021/09/06 00:19:58;;;;;;;;;;;;;;;18.04;40.98;100621.00;4396483;32;34884;-90
2021/09/06 00:22:26;;;;;;;;;;;;;;;17.59;39.88;100628.78;4389241;32;35174;-91
2021/09/06 00:25:10;;;;;;;;;;;;;;;18.05;41.08;100622.69;4396736;32;34427;-90
2021/09/06 00:27:41;;;;;;;;;;;;;;;17.86;41.44;100626.56;4380025;32;34437;-91
2021/09/06 00:30:29;;;;;;;;;;;;;;;17.60;39.73;100630.47;4388277;32;33805;-90
2021/09/06 00:33:19;;;;;;;;;;;;;;;17.75;40.39;100624.22;4390394;32;34379;-90
2021/09/06 00:36:10;;;;;;;;;;;;;;;17.81;40.69;100623.56;4400365;32;34903;-90
2021/09/06 00:38:59;;;;;;;;;;;;;;;17.85;40.64;100630.28;4392594;32;36005;-92
2021/09/06 00:41:31;;;;;;;;;;;;;;;17.92;41.80;100631.28;4377893;32;35187;-91
2021/09/06 00:44:06;;;;;;;;;;;;;;;18.09;41.18;100626.69;4389841;32;32642;-91
2021/09/06 00:46:45;;;;;;;;;;;;;;;18.00;42.26;100622.34;4403732;32;33568;-90
2021/09/06 00:49:32;;;;;;;;;;;;;;;18.03;41.97;100622.84;4391448;32;35371;-90
2021/09/06 00:52:02;;;;;;;;;;;;;;;18.11;41.66;100616.59;4392734;32;33961;-90
2021/09/06 00:54:38;;;;;;;;;;;;;;;17.94;40.82;100623.03;4394200;32;33987;-90
2021/09/06 00:57:23;;;;;;;;;;;;;;;17.36;39.73;100621.56;4405858;32;34784;-89
2021/09/06 00:59:56;;;;;;;;;;;;;;;16.76;40.79;100606.63;4377484;32;897807;-92
2021/09/06 01:02:45;;;;;;;;;;;;;;;17.09;40.78;100616.47;4380217;32;34766;-90
2021/09/06 01:05:26;;;;;;;;;;;;;;;17.77;42.49;100616.00;4394135;32;33016;-90
2021/09/06 01:08:31;;;;;;;;;;;;;;;17.90;42.83;100609.09;4403840;32;35155;-90
2021/09/06 01:11:16;;;;;;;;;;;;;;;17.65;40.69;100612.81;4379694;32;34202;-92
2021/09/06 01:13:49;;;;;;;;;;;;;;;17.88;41.94;100603.00;4394058;32;35482;-89
2021/09/06 01:16:37;;;;;;;;;;;;;;;17.52;41.96;100607.09;4392652;32;33483;-89
2021/09/06 01:19:09;;;;;;;;;;;;;;;17.36;41.57;100610.81;4393001;32;34281;-92
2021/09/06 01:21:52;;;;;;;;;;;;;;;17.75;43.27;100612.59;4393599;32;35726;-90
2021/09/06 01:24:24;;;;;;;;;;;;;;;17.50;42.35;100608.28;4393074;32;33829;-90
2021/09/06 01:27:05;;;;;;;;;;;;;;;17.62;42.15;100601.53;4392639;32;34760;-90
2021/09/06 01:29:49;;;;;;;;;;;;;;;17.58;42.23;100605.59;4405148;32;34870;-90
2021/09/06 01:32:33;;;;;;;;;;;;;;;17.69;43.70;100614.13;4394493;32;34779;-90
2021/09/06 01:35:21;;;;;;;;;;;;;;;17.73;43.74;100611.94;4395057;32;34797;-89
2021/09/06 01:37:53;;;;;;;;;;;;;;;17.56;43.81;100607.59;4392721;32;32351;-91
2021/09/06 01:40:25;;;;;;;;;;;;;;;17.50;43.36;100606.41;4404849;32;35329;-91
2021/09/06 01:42:57;;;;;;;;;;;;;;;17.53;43.63;100614.16;4391745;32;33698;-89
2021/09/06 01:45:27;;;;;;;;;;;;;;;17.53;43.46;100614.16;4380187;32;34766;-89
2021/09/06 01:48:15;;;;;;;;;;;;;;;17.43;43.65;100614.50;4401347;32;32693;-91
2021/09/06 01:50:44;;;;;;;;;;;;;;;17.33;44.71;100614.62;4393042;32;33581;-90
2021/09/06 01:53:21;;;;;;;;;;;;;;;17.48;45.44;100622.91;4393190;32;34629;-90
2021/09/06 01:56:05;;;;;;;;;;;;;;;17.41;44.67;100617.34;4404436;32;34843;-90
2021/09/06 01:58:36;;;;;;;;;;;;;;;17.40;43.41;100618.38;4392472;32;34486;-88
2021/09/06 02:01:07;;;;;;;;;;;;;;;17.31;44.58;100616.66;4392779;32;33719;-90
2021/09/06 02:03:53;;;;;;;;;;;;;;;17.30;44.40;100630.25;4404225;32;36115;-90
2021/09/06 02:06:25;;;;;;;;;;;;;;;17.21;44.61;100629.41;4405916;32;34659;-91
2021/09/06 02:08:55;;;;;;;;;;;;;;;17.20;45.33;100625.06;4393015;32;33696;-90
2021/09/06 02:11:51;;;;;;;;;;;;;;;17.04;45.42;100629.53;4403890;32;34255;-89
2021/09/06 02:14:59;;;;;;;;;;;;;;;17.08;45.84;100620.97;4393390;32;34840;-89
2021/09/06 02:17:48;;;;;;;;;;;;;;;16.95;46.18;100623.31;4387774;32;35583;-90
2021/09/06 02:20:39;;;;;;;;;;;;;;;16.74;46.67;100628.31;4394074;32;33214;-90
2021/09/06 02:23:32;;;;;;;;;;;;;;;16.83;46.50;100629.16;4383099;32;35725;-90
2021/09/06 02:26:21;;;;;;;;;;;;;;;16.88;46.40;100627.66;4384843;32;34804;-92
2021/09/06 02:29:10;;;;;;;;;;;;;;;16.94;46.46;100618.09;4407182;32;35325;-91
2021/09/06 02:31:49;;;;;;;;;;;;;;;16.82;46.55;100616.72;4390462;32;33448;-90
2021/09/06 02:34:25;;;;;;;;;;;;;;;16.74;46.55;100627.47;4392384;32;34869;-91
2021/09/06 02:37:15;;;;;;;;;;;;;;;16.78;46.84;100623.47;4388952;32;37455;-90
2021/09/06 02:40:04;;;;;;;;;;;;;;;16.61;47.62;100625.22;4392905;32;34179;-89
2021/09/06 02:42:52;;;;;;;;;;;;;;;16.52;47.46;100626.19;4393602;32;33506;-91
2021/09/06 02:45:22;;;;;;;;;;;;;;;16.57;47.18;100626.56;4393691;32;33430;-88
2021/09/06 02:48:10;;;;;;;;;;;;;;;16.53;47.38;100629.75;4403831;32;35514;-90
2021/09/06 02:50:46;;;;;;;;;;;;;;;16.41;48.19;100639.91;4397433;32;33399;-89
2021/09/06 02:53:31;;;;;;;;;;;;;;;16.54;47.07;100640.31;4397944;32;32827;-90
2021/09/06 02:56:02;;;;;;;;;;;;;;;16.43;47.02;100637.91;4405804;32;35948;-89
2021/09/06 02:58:33;;;;;;;;;;;;;;;16.32;47.54;100640.03;4393288;32;36346;-91
2021/09/06 03:01:08;;;;;;;;;;;;;;;16.37;47.50;100635.88;4391274;32;34776;-91
2021/09/06 03:03:46;;;;;;;;;;;;;;;16.45;47.05;100641.31;4393786;32;32904;-89
2021/09/06 03:06:30;;;;;;;;;;;;;;;16.22;47.89;100637.44;4392891;32;33101;-90
2021/09/06 03:09:00;;;;;;;;;;;;;;;16.31;47.96;100641.84;4379318;32;35064;-89
2021/09/06 03:11:51;;;;;;;;;;;;;;;16.12;48.67;100631.34;4404820;32;35730;-90
2021/09/06 03:14:41;;;;;;;;;;;;;;;16.13;48.38;100640.25;4392062;32;34533;-89
2021/09/06 03:17:11;;;;;;;;;;;;;;;16.20;48.20;100634.09;4379229;32;36091;-91
2021/09/06 03:19:56;;;;;;;;;;;;;;;16.05;49.34;100634.84;4403912;32;35592;-91
2021/09/06 03:22:33;;;;;;;;;;;;;;;15.98;48.34;100642.66;4397122;32;34920;-90
2021/09/06 03:25:22;;;;;;;;;;;;;;;16.03;48.18;100642.19;4390660;32;32495;-92
2021/09/06 03:27:52;;;;;;;;;;;;;;;15.98;48.52;100639.97;4404849;32;34701;-89
2021/09/06 03:30:22;;;;;;;;;;;;;;;16.04;48.56;100638.53;4394024;32;35782;-89
2021/09/06 03:33:05;;;;;;;;;;;;;;;15.94;48.73;100644.00;4394001;32;35916;-90
2021/09/06 03:35:35;;;;;;;;;;;;;;;15.88;48.71;100643.78;4402298;32;34335;-91
2021/09/06 03:38:23;;;;;;;;;;;;;;;16.03;48.30;100643.03;4388144;32;33439;-89
2021/09/06 03:41:12;;;;;;;;;;;;;;;15.96;48.57;100647.34;4391402;32;35741;-89
2021/09/06 03:43:43;;;;;;;;;;;;;;;15.89;48.65;100643.63;4406361;32;36355;-89
2021/09/06 03:46:30;;;;;;;;;;;;;;;15.68;49.76;100639.63;4401841;32;33259;-90
2021/09/06 03:49:06;;;;;;;;;;;;;;;15.70;49.19;100638.44;4394061;32;35262;-90
2021/09/06 03:51:50;;;;;;;;;;;;;;;15.64;49.16;100644.44;4388432;32;35382;-90
2021/09/06 03:54:39;;;;;;;;;;;;;;;15.69;48.88;100642.12;4403983;32;33970;-90
2021/09/06 03:57:31;;;;;;;;;;;;;;;15.67;48.24;100646.81;4393448;32;34591;-90
2021/09/06 04:00:16;;;;;;;;;;;;;;;15.60;49.64;100652.97;4389130;32;33038;-91
2021/09/06 04:02:54;;;;;;;;;;;;;;;15.67;48.65;100654.03;4403371;32;34370;-90
2021/09/06 04:05:44;;;;;;;;;;;;;;;15.77;47.30;100647.56;4395616;32;35856;-88
2021/09/06 04:08:22;;;;;;;;;;;;;;;15.43;48.04;100646.63;4392806;32;33003;-90
2021/09/06 04:11:06;;;;;;;;;;;;;;;15.57;47.22;100650.59;4384951;32;32496;-90
2021/09/06 04:13:40;;;;;;;;;;;;;;;15.63;47.21;100655.31;4397294;32;36017;-89
2021/09/06 04:16:26;;;;;;;;;;;;;;;15.49;47.61;100650.53;4403644;32;34670;-87
2021/09/06 04:19:02;;;;;;;;;;;;;;;15.44;47.46;100659.03;4403406;32;33166;-87
2021/09/06 04:21:30;;;;;;;;;;;;;;;15.44;47.02;100659.03;4376485;32;33249;-87
2021/09/06 04:24:06;;;;;;;;;;;;;;;15.27;47.78;100669.72;4406881;32;34597;-87
2021/09/06 04:26:36;;;;;;;;;;;;;;;15.01;49.31;100664.25;4375628;32;34680;-87
2021/09/06 04:29:12;;;;;;;;;;;;;;;15.25;48.17;100672.56;4396083;32;32788;-88
2021/09/06 04:31:56;;;;;;;;;;;;;;;14.96;49.23;100671.94;4397845;32;34306;-87
2021/09/06 04:34:33;;;;;;;;;;;;;;;14.99;49.55;100666.25;4380814;32;35338;-88
2021/09/06 04:37:10;;;;;;;;;;;;;;;14.99;49.08;100670.75;4404562;32;35741;-87
2021/09/06 04:39:44;;;;;;;;;;;;;;;14.98;49.25;100677.13;4367959;32;32685;-88
2021/09/06 04:42:19;;;;;;;;;;;;;;;15.07;48.66;100678.91;4394456;32;33966;-87
2021/09/06 04:44:49;;;;;;;;;;;;;;;15.17;49.08;100672.47;4405473;32;35433;-87
2021/09/06 04:47:19;;;;;;;;;;;;;;;15.04;49.51;100680.03;4380830;32;34618;-89
2021/09/06 04:50:10;;;;;;;;;;;;;;;15.24;48.61;100676.25;4406847;32;32326;-93
2021/09/06 05:00:30;;;;;;;;;;;;;;;15.40;50.06;100681.78;4371097;32;33822;-88
2021/09/06 05:25:15;;;;;;;;;;;;;;;;;;;;;
2021/09/06 05:41:51;;;;;;;;;;;;;;;;;;;;;
2021/09/06 05:48:23;;;;;;;;;;;;;;;;;;;;;
2021/09/06 05:54:49;;;;;;;;;;;;;;;;;;;;;
2021/09/06 05:58:38;;;;;;;;;;;;;;;16.90;46.63;100695.53;4342467;33;33381;-95
2021/09/06 06:02:51;;;;;;;;;;;;;;;;;;;;;
2021/09/06 06:11:41;;;;;;;;;;;;;;;17.03;46.75;100706.69;4329886;33;34234;-95
2021/09/06 06:18:31;;;;;;;;;;;;;;;17.85;42.42;100710.22;4350992;32;36194;-96
2021/09/06 06:20:58;;;;;;;;;;;;;;;17.80;42.91;100709.84;4374783;32;34014;-95
2021/09/06 06:28:45;;;;;;;;;;;;;;;;;;;;;
2021/09/06 06:38:36;;;;;;;;;;;;;;;;;;;;;
2021/09/06 06:42:31;;;;;;;;;;;;;;;;;;;;;
2021/09/06 07:02:35;;;;;;;;;;;;;;;18.19;42.00;100727.84;4272964;33;35252;-95
2021/09/06 07:31:45;;;;;;;;;;;;;;;20.18;36.05;100745.97;4274088;33;33528;-95
2021/09/06 07:34:15;;;;;;;;;;;;;;;20.18;35.17;100756.78;4335165;32;34420;-94
2021/09/06 07:44:50;;;;;;;;;;;;;;;20.48;36.72;100759.34;4367722;32;33969;-93
2021/09/06 08:14:08;;;;;;;;;;;;;;;;;;;;;
2021/09/06 08:20:45;;;;;;;;;;;;;;;21.96;32.63;100759.63;4325233;33;33267;-93
2021/09/06 08:27:26;;;;;;;;;;;;;;;;;;;;;
2021/09/06 08:34:03;;;;;;;;;;;;;;;22.43;30.11;100757.16;4307785;33;34934;-94
2021/09/06 08:40:44;;;;;;;;;;;;;;;;;;;;;
2021/09/06 08:47:13;;;;;;;;;;;;;;;;;;;;;
2021/09/06 08:59:47;;;;;;;;;;;;;;;;;;;;;
2021/09/06 09:12:42;;;;;;;;;;;;;;;22.86;28.43;100760.56;4274441;33;35177;-94
2021/09/06 09:23:30;;;;;;;;;;;;;;;22.73;28.33;100755.09;4319346;33;35010;-95
2021/09/06 09:30:25;;;;;;;;;;;;;;;;;;;;;
2021/09/06 09:34:04;;;;;;;;;;;;;;;23.29;29.57;100757.47;4301293;33;33487;-95
2021/09/06 09:40:39;;;;;;;;;;;;;;;23.01;27.80;100750.44;4341224;33;20013;-95
2021/09/06 09:47:26;;;;;;;;;;;;;;;;;;;;;
2021/09/06 09:53:52;;;;;;;;;;;;;;;23.98;29.49;100757.06;4308469;33;33970;-94
2021/09/06 10:00:27;;;;;;;;;;;;;;;22.86;28.89;100747.00;4327144;33;20008;-95
2021/09/06 10:10:30;;;;;;;;;;;;;;;24.41;28.33;100741.19;4385014;32;34060;-96
2021/09/06 10:37:39;;;;;;;;;;;;;;;;;;;;;
2021/09/06 10:41:50;;;;;;;;;;;;;;;;;;;;;
2021/09/06 10:49:32;;;;;;;;;;;;;;;25.80;25.95;100712.22;4310885;33;34415;-96
2021/09/06 11:22:27;;;;;;;;;;;;;;;27.13;26.97;100693.12;2697056;27;20330;-90
2021/09/06 11:32:17;;;;;;;;;;;;;;;26.59;25.03;100686.00;4321486;33;35220;-87
2021/09/06 11:46:00;;;;;;;;;;;;;;;26.46;26.04;100662.38;4308675;33;34592;-88
2021/09/06 11:50:25;;;;;;;;;;;;;;;28.07;25.58;100671.37;4337728;32;32296;-89
2021/09/06 11:53:46;;;;;;;;;;;;;;;28.39;24.56;100665.34;4336790;33;32868;-89
2021/09/06 11:56:40;;;;;;;;;;;;;;;29.07;23.51;100657.28;4336717;33;34538;-89
2021/09/06 12:00:05;;;;;;;;;;;;;;;29.36;23.16;100654.28;4331850;33;34111;-89
2021/09/06 12:06:29;;;;;;;;;;;;;;;29.35;21.86;100643.59;4358468;32;34060;-90
2021/09/06 12:41:40;;;;;;;;;;;;;;;32.44;20.28;100628.47;4355603;32;33522;-89
2021/09/06 12:48:13;;;;;;;;;;;;;;;31.95;20.02;100620.63;4360729;32;33494;-88
2021/09/06 12:52:23;;;;;;;;;;;;;;;;;;;;;
2021/09/06 12:59:04;;;;;;;;;;;;;;;31.81;19.63;100597.41;4399594;32;33392;-93
2021/09/06 13:09:57;;;;;;;;;;;;;;;31.25;20.58;100608.97;4397074;32;35506;-91
2021/09/06 13:13:40;;;;;;;;;;;;;;;31.49;20.28;100602.03;4388339;32;33546;-92
2021/09/06 13:50:34;;;;;;;;;;;;;;;30.98;20.62;100575.09;4319669;33;36979;-93
2021/09/06 14:06:53;;;;;;;;;;;;;;;;;;;;;
2021/09/06 14:17:14;;;;;;;;;;;;;;;31.40;20.84;100576.94;4279676;33;36039;-95
2021/09/06 14:25:17;;;;;;;;;;;;;;;31.31;20.36;100575.75;4345569;33;34069;-94
2021/09/06 14:58:43;;;;;;;;;;;;;;;30.34;21.94;100553.94;4273075;33;34398;-91
2021/09/06 15:05:43;;;;;;;;;;;;;;;31.30;21.39;100554.00;4271971;33;34099;-92
2021/09/06 15:12:44;;;;;;;;;;;;;;;;;;;;;
2021/09/06 15:24:12;;;;;;;;;;;;;;;31.66;21.59;100544.97;4282670;33;33478;-91
2021/09/06 15:30:43;;;;;;;;;;;;;;;31.21;21.32;100553.66;4252259;33;33453;-91
2021/09/06 15:41:35;;;;;;;;;;;;;;;30.68;21.56;100544.53;4240391;33;34910;-89
2021/09/06 15:51:24;;;;;;;;;;;;;;;31.02;21.99;100541.34;4224458;33;35399;-92
2021/09/06 15:54:30;;;;;;;;;;;;;;;30.95;21.13;100546.19;4238559;33;34665;-93
2021/09/06 16:05:18;;;;;;;;;;;;;;;;;;;;;
2021/09/06 16:12:19;;;;;;;;;;;;;;;29.59;23.05;100538.19;4237562;33;35328;-93
2021/09/06 16:23:00;;;;;;;;;;;;;;;29.17;23.60;100545.94;4193283;27;36002;-89
2021/09/06 16:25:28;;;;;;;;;;;;;;;29.26;24.22;100543.66;4355861;32;34183;-90
2021/09/06 16:27:59;;;;;;;;;;;;;;;29.27;23.09;100548.87;4352389;32;34284;-90
2021/09/06 16:30:32;;;;;;;;;;;;;;;29.02;24.30;100550.31;4379542;32;34505;-90
2021/09/06 16:33:04;;;;;;;;;;;;;;;28.75;25.11;100561.00;4367152;32;35325;-89
2021/09/06 16:35:35;;;;;;;;;;;;;;;28.90;26.08;100558.53;4340841;32;33385;-91
2021/09/06 16:38:04;;;;;;;;;;;;;;;28.88;25.22;100552.50;4377244;32;33427;-89
2021/09/06 16:40:32;;;;;;;;;;;;;;;28.62;25.79;100553.06;4352579;32;35226;-90
2021/09/06 16:43:00;;;;;;;;;;;;;;;28.23;27.01;100553.00;4364603;32;34187;-90
2021/09/06 16:45:28;;;;;;;;;;;;;;;28.26;27.10;100549.78;4352253;32;34803;-90
2021/09/06 16:47:56;;;;;;;;;;;;;;;28.10;27.81;100551.34;4364602;32;32490;-91
2021/09/06 16:50:44;;;;;;;;;;;;;;;27.87;27.85;100554.09;4352571;32;32876;-90
2021/09/06 16:53:32;;;;;;;;;;;;;;;27.99;29.45;100554.09;4340296;32;34019;-89
2021/09/06 16:56:02;;;;;;;;;;;;;;;27.16;28.75;100557.97;4376440;32;35297;-91
2021/09/06 16:58:45;;;;;;;;;;;;;;;27.33;29.84;100553.53;4370704;32;32849;-89
2021/09/06 17:01:13;;;;;;;;;;;;;;;27.58;31.13;100559.63;4383217;32;34423;-90
2021/09/06 17:03:42;;;;;;;;;;;;;;;27.13;29.92;100555.72;4395713;32;35000;-91
2021/09/06 17:06:11;;;;;;;;;;;;;;;27.07;30.64;100553.88;4395704;32;35635;-90
2021/09/06 17:08:42;;;;;;;;;;;;;;;27.10;32.23;100559.72;4395649;32;33959;-91
2021/09/06 17:11:21;;;;;;;;;;;;;;;26.95;30.91;100561.22;4385204;32;35107;-90
2021/09/06 17:14:05;;;;;;;;;;;;;;;26.75;30.92;100557.06;4406044;32;35999;-89
2021/09/06 17:16:34;;;;;;;;;;;;;;;26.73;32.77;100554.59;4382722;32;34982;-89
2021/09/06 17:19:22;;;;;;;;;;;;;;;26.47;33.50;100563.06;4390237;32;34742;-90
2021/09/06 17:21:59;;;;;;;;;;;;;;;26.41;33.19;100557.69;4395565;32;33094;-90
2021/09/06 17:24:47;;;;;;;;;;;;;;;26.36;33.58;100555.66;4384361;32;34525;-89
2021/09/06 17:27:31;;;;;;;;;;;;;;;26.19;33.55;100565.50;4394340;32;34924;-91
2021/09/06 17:30:14;;;;;;;;;;;;;;;26.15;33.24;100567.00;4383232;32;33281;-89
2021/09/06 17:32:44;;;;;;;;;;;;;;;25.95;32.16;100569.09;4395522;32;33655;-89
2021/09/06 17:35:21;;;;;;;;;;;;;;;25.79;32.51;100575.09;4384740;32;35823;-90
2021/09/06 17:38:05;;;;;;;;;;;;;;;25.71;34.07;100578.09;4393965;32;34655;-89
2021/09/06 17:40:35;;;;;;;;;;;;;;;25.54;32.75;100578.88;4384588;32;33468;-89
2021/09/06 17:43:07;;;;;;;;;;;;;;;25.29;32.74;100578.03;4384441;32;34330;-90
2021/09/06 17:45:36;;;;;;;;;;;;;;;25.09;33.30;100580.84;4382896;32;34904;-89
2021/09/06 17:48:08;;;;;;;;;;;;;;;24.73;34.07;100591.50;4381007;32;33437;-89
2021/09/06 17:50:45;;;;;;;;;;;;;;;23.81;35.74;100589.16;4384551;32;34474;-91
2021/09/06 17:53:15;;;;;;;;;;;;;;;24.18;35.70;100592.06;4368787;32;33324;-90
2021/09/06 17:55:51;;;;;;;;;;;;;;;24.29;35.75;100590.56;4403957;32;34168;-89
2021/09/06 17:58:39;;;;;;;;;;;;;;;24.11;36.15;100588.50;4398701;32;34597;-90
2021/09/06 18:01:16;;;;;;;;;;;;;;;24.17;35.72;100601.25;4381552;32;33242;-89
2021/09/06 18:04:04;;;;;;;;;;;;;;;24.01;36.25;100603.59;4383144;32;34878;-89
2021/09/06 18:06:47;;;;;;;;;;;;;;;23.89;36.19;100608.00;4393916;32;35539;-89
2021/09/06 18:09:35;;;;;;;;;;;;;;;23.83;37.48;100609.63;4393661;32;34854;-89
2021/09/06 18:12:06;;;;;;;;;;;;;;;23.72;36.95;100609.44;4384894;32;33168;-89
2021/09/06 18:14:39;;;;;;;;;;;;;;;23.67;37.28;100608.41;4381681;32;34160;-88
2021/09/06 18:17:12;;;;;;;;;;;;;;;23.65;36.39;100611.31;4395076;32;35784;-88
2021/09/06 18:19:43;;;;;;;;;;;;;;;23.59;36.06;100617.56;4394650;32;35364;-90
2021/09/06 18:22:20;;;;;;;;;;;;;;;23.49;36.18;100619.03;4394271;32;32490;-91
2021/09/06 18:25:12;;;;;;;;;;;;;;;23.25;36.71;100619.63;4382302;32;34462;-89
2021/09/06 18:27:45;;;;;;;;;;;;;;;23.13;36.98;100621.22;4395527;32;35734;-89
2021/09/06 18:30:15;;;;;;;;;;;;;;;22.99;37.41;100624.94;4383887;32;34532;-89
2021/09/06 18:33:02;;;;;;;;;;;;;;;22.86;37.44;100622.19;4386465;32;33669;-89
2021/09/06 18:35:32;;;;;;;;;;;;;;;22.66;38.54;100629.41;4395438;32;33472;-89
2021/09/06 18:38:19;;;;;;;;;;;;;;;22.58;38.75;100621.44;4392890;32;36846;-89
2021/09/06 18:41:25;;;;;;;;;;;;;;;22.44;38.78;100628.66;4383620;32;34034;-87
2021/09/06 18:43:57;;;;;;;;;;;;;;;22.29;38.82;100619.78;4395444;32;33383;-87
2021/09/06 18:46:28;;;;;;;;;;;;;;;22.13;39.54;100630.97;4382682;32;33905;-88
2021/09/06 18:49:01;;;;;;;;;;;;;;;21.94;39.76;100630.81;4382847;32;35076;-84
2021/09/06 18:51:32;;;;;;;;;;;;;;;21.74;40.09;100629.81;4394660;32;35068;-85
2021/09/06 18:54:04;;;;;;;;;;;;;;;21.67;39.99;100634.31;4395434;32;33431;-84
2021/09/06 18:56:51;;;;;;;;;;;;;;;21.66;40.83;100641.63;4368905;32;33429;-86
2021/09/06 18:59:22;;;;;;;;;;;;;;;21.56;40.51;100643.78;4381802;32;35841;-85
2021/09/06 19:02:00;;;;;;;;;;;;;;;21.38;40.62;100643.41;4392817;32;34687;-87
2021/09/06 19:04:37;;;;;;;;;;;;;;;21.07;41.43;100642.84;4381091;32;33153;-87
2021/09/06 19:07:19;;;;;;;;;;;;;;;20.95;41.79;100647.09;4367768;32;33762;-88
2021/09/06 19:09:58;;;;;;;;;;;;;;;20.71;42.36;100650.06;4380285;32;35286;-86
2021/09/06 19:12:31;;;;;;;;;;;;;;;20.67;42.06;100653.34;4383220;32;34694;-86
2021/09/06 19:15:09;;;;;;;;;;;;;;;20.60;42.99;100657.84;4382967;32;33235;-86
2021/09/06 19:18:00;;;;;;;;;;;;;;;20.49;43.16;100662.88;4404598;32;33096;-85
2021/09/06 19:20:39;;;;;;;;;;;;;;;20.61;42.54;100659.50;4391824;32;35767;-87
2021/09/06 19:23:16;;;;;;;;;;;;;;;20.54;42.94;100655.88;4392286;32;33968;-86
2021/09/06 19:25:45;;;;;;;;;;;;;;;20.52;43.00;100660.63;4389102;32;32890;-87
2021/09/06 19:28:35;;;;;;;;;;;;;;;20.51;43.20;100663.50;4395780;32;33593;-86
2021/09/06 19:31:14;;;;;;;;;;;;;;;20.38;42.88;100664.16;4392883;32;34795;-86
2021/09/06 19:33:49;;;;;;;;;;;;;;;20.27;43.25;100656.50;4396231;32;33950;-86
2021/09/06 19:36:28;;;;;;;;;;;;;;;20.15;43.87;100671.50;4381879;32;32343;-86
2021/09/06 19:39:01;;;;;;;;;;;;;;;20.12;43.46;100662.94;4393270;32;34257;-88
2021/09/06 19:41:51;;;;;;;;;;;;;;;19.97;43.69;100670.13;4390148;32;35642;-86
2021/09/06 19:44:33;;;;;;;;;;;;;;;19.92;44.04;100677.97;4382003;32;34152;-86
2021/09/06 19:47:02;;;;;;;;;;;;;;;19.89;44.19;100667.50;4387292;32;33049;-86
2021/09/06 19:49:42;;;;;;;;;;;;;;;19.74;44.52;100678.25;4392097;32;32939;-87
2021/09/06 19:52:20;;;;;;;;;;;;;;;19.75;43.96;100673.72;4394873;32;35383;-86
2021/09/06 19:55:08;;;;;;;;;;;;;;;19.35;45.18;100680.25;4390134;32;32248;-86
2021/09/06 19:57:56;;;;;;;;;;;;;;;19.47;44.99;100678.00;4382279;32;34980;-86
2021/09/06 20:00:44;;;;;;;;;;;;;;;19.42;44.84;100686.62;4382911;32;34255;-86
2021/09/06 20:03:31;;;;;;;;;;;;;;;19.40;44.79;100677.87;4383574;32;34457;-88
2021/09/06 20:06:11;;;;;;;;;;;;;;;19.35;44.93;100680.25;4384617;32;33962;-86
2021/09/06 20:08:52;;;;;;;;;;;;;;;19.21;45.10;100680.19;4382532;32;31866;-87
2021/09/06 20:11:30;;;;;;;;;;;;;;;19.11;45.60;100682.22;4384419;32;33872;-86
2021/09/06 20:14:17;;;;;;;;;;;;;;;19.08;45.63;100691.50;4386739;32;35664;-89
2021/09/06 20:16:48;;;;;;;;;;;;;;;19.03;45.65;100693.06;4392521;32;34918;-89
2021/09/06 20:19:30;;;;;;;;;;;;;;;18.97;45.64;100693.78;4394924;32;32961;-89
2021/09/06 20:22:17;;;;;;;;;;;;;;;18.86;45.53;100686.91;4383969;32;34055;-89
2021/09/06 20:24:48;;;;;;;;;;;;;;;18.84;45.99;100691.66;4389839;32;35200;-90
2021/09/06 20:27:25;;;;;;;;;;;;;;;18.75;46.24;100695.41;4385397;32;33889;-88
2021/09/06 20:30:02;;;;;;;;;;;;;;;18.79;46.06;100690.50;4384178;32;32739;-90
2021/09/06 20:36:04;;;;;;;;;;;;;;;18.69;47.08;100696.09;4306537;27;34562;-93
2021/09/06 20:38:33;;;;;;;;;;;;;;;18.71;47.52;100690.53;4406406;32;34484;-92
2021/09/06 20:41:00;;;;;;;;;;;;;;;18.73;47.00;100691.19;4418455;32;34008;-93
2021/09/06 20:43:28;;;;;;;;;;;;;;;18.71;47.03;100698.63;4400494;32;35668;-91
2021/09/06 20:45:56;;;;;;;;;;;;;;;18.42;47.98;100690.28;4438292;32;35450;-94
2021/09/06 20:48:23;;;;;;;;;;;;;;;18.63;47.07;100687.84;4436936;32;34564;-93
2021/09/06 20:50:53;;;;;;;;;;;;;;;18.59;47.09;100692.75;4423598;32;32424;-91
2021/09/06 20:53:30;;;;;;;;;;;;;;;18.58;46.86;100693.75;4412285;32;33450;-93
2021/09/06 20:56:00;;;;;;;;;;;;;;;18.49;47.10;100697.50;4441680;32;36462;-94
2021/09/06 20:58:28;;;;;;;;;;;;;;;18.47;47.64;100695.97;4408131;32;34638;-90
2021/09/06 21:00:56;;;;;;;;;;;;;;;18.39;47.58;100690.63;4441723;32;33793;-95
2021/09/06 21:03:25;;;;;;;;;;;;;;;18.27;47.78;100690.12;4410875;32;34846;-94
2021/09/06 21:05:53;;;;;;;;;;;;;;;18.26;48.24;100692.97;4420585;32;36239;-91
2021/09/06 21:08:24;;;;;;;;;;;;;;;18.19;47.94;100695.53;4409906;32;35067;-96
2021/09/06 21:10:54;;;;;;;;;;;;;;;18.06;48.33;100697.06;4425396;32;33921;-91
2021/09/06 21:13:23;;;;;;;;;;;;;;;17.97;48.81;100701.59;4423745;32;34457;-93
2021/09/06 21:15:51;;;;;;;;;;;;;;;18.05;48.49;100692.69;4408526;32;36127;-96
2021/09/06 21:18:20;;;;;;;;;;;;;;;18.05;48.35;100696.22;4417946;32;35277;-94
2021/09/06 21:20:47;;;;;;;;;;;;;;;18.01;48.53;100697.56;4411663;32;32704;-91
2021/09/06 21:23:16;;;;;;;;;;;;;;;17.99;48.34;100702.28;4433040;32;33827;-95
2021/09/06 21:25:44;;;;;;;;;;;;;;;17.98;48.58;100706.00;4433283;32;35129;-91
2021/09/06 21:28:13;;;;;;;;;;;;;;;17.98;48.76;100707.84;4412764;32;36750;-96
2021/09/06 21:31:01;;;;;;;;;;;;;;;17.98;49.00;100705.13;4414500;32;34831;-95
2021/09/06 21:34:19;;;;;;;;;;;;;;;18.00;48.67;100703.97;4360108;32;33232;-95
2021/09/06 21:37:32;;;;;;;;;;;;;;;17.94;48.33;100701.13;4413170;32;34940;-95
2021/09/06 21:40:45;;;;;;;;;;;;;;;;;;;;;
2021/09/06 21:43:25;;;;;;;;;;;;;;;;;;;;;
2021/09/06 21:50:05;;;;;;;;;;;;;;;17.60;49.24;100712.03;4322204;33;35709;-95
2021/09/06 21:53:34;;;;;;;;;;;;;;;;;;;;;
2021/09/06 21:56:29;;;;;;;;;;;;;;;17.55;49.83;100719.78;4274781;33;33158;-94
2021/09/06 21:59:27;;;;;;;;;;;;;;;17.69;49.16;100718.28;4272751;33;36289;-95
2021/09/06 22:02:22;;;;;;;;;;;;;;;17.63;49.38;100725.16;4252342;33;35011;-96
2021/09/06 22:05:45;;;;;;;;;;;;;;;;;;;;;
2021/09/06 22:08:58;;;;;;;;;;;;;;;;;;;;;
2021/09/06 22:11:59;;;;;;;;;;;;;;;17.49;49.17;100720.41;4296326;33;34570;-96
2021/09/06 22:15:55;;;;;;;;;;;;;;;17.48;49.55;100720.59;4300935;33;36531;-92
2021/09/06 22:18:29;;;;;;;;;;;;;;;17.44;50.08;100716.56;4293852;33;34498;-95
2021/09/06 22:21:47;;;;;;;;;;;;;;;;;;;;;
2021/09/06 22:25:36;;;;;;;;;;;;;;;17.50;49.35;100713.22;4231686;33;34368;-95
2021/09/06 22:35:12;;;;;;;;;;;;;;;;;;;;;
2021/09/06 22:38:16;;;;;;;;;;;;;;;;;;;;;
2021/09/06 22:41:48;;;;;;;;;;;;;;;17.02;50.34;100717.59;4332308;33;34830;-95
2021/09/06 22:45:08;;;;;;;;;;;;;;;17.13;50.04;100711.91;4325846;33;35217;-94
2021/09/06 22:50:45;;;;;;;;;;;;;;;17.02;50.56;100712.22;4372209;32;35153;-96
2021/09/06 22:57:21;;;;;;;;;;;;;;;16.83;51.60;100710.66;4390375;32;35521;-94
2021/09/06 23:01:10;;;;;;;;;;;;;;;16.69;52.32;100713.94;4394872;32;34363;-95
2021/09/06 23:04:08;;;;;;;;;;;;;;;;;;;;;
2021/09/06 23:06:56;;;;;;;;;;;;;;;16.86;53.39;100715.69;4396878;32;36083;-94
2021/09/06 23:09:57;;;;;;;;;;;;;;;16.78;53.57;100712.97;4392810;32;33923;-95
2021/09/06 23:12:56;;;;;;;;;;;;;;;16.82;53.32;100710.78;4380066;32;32612;-95
2021/09/06 23:19:06;;;;;;;;;;;;;;;;;;;;;
2021/09/06 23:22:20;;;;;;;;;;;;;;;;;;;;;
2021/09/06 23:25:35;;;;;;;;;;;;;;;;;;;;;
2021/09/06 23:28:27;;;;;;;;;;;;;;;16.74;52.26;100711.63;4407479;32;35628;-95
2021/09/06 23:32:16;;;;;;;;;;;;;;;16.86;52.57;100714.84;4386837;32;35052;-95
2021/09/06 23:38:02;;;;;;;;;;;;;;;;;;;;;